createdAt,value
2017-09-05T00:00:31.082Z,58.30
2017-09-05T00:02:58.633Z,58.60
2017-09-05T00:05:26.161Z,58.60
2017-09-05T00:07:59.605Z,59.20
2017-09-05T00:10:27.941Z,59.20
2017-09-05T00:13:09.378Z,58.90
2017-09-05T00:15:40.542Z,58.90
2017-09-05T00:18:23.885Z,58.90
2017-09-05T00:20:51.676Z,58.40
2017-09-05T00:23:19.206Z,58.70
2017-09-05T00:25:47.498Z,59.50
2017-09-05T00:28:15.030Z,58.80
2017-09-05T00:30:42.594Z,59.00
2017-09-05T00:33:10.118Z,58.90
2017-09-05T00:35:37.647Z,58.90
2017-09-05T00:38:05.182Z,58.70
2017-09-05T00:40:32.786Z,58.60
2017-09-05T00:43:00.343Z,58.60
2017-09-05T00:45:27.873Z,58.80
2017-09-05T00:47:55.413Z,59.20
2017-09-05T00:50:22.937Z,59.10
2017-09-05T00:52:50.469Z,59.10
2017-09-05T00:55:18.018Z,59.60
2017-09-05T00:57:45.542Z,60.80
2017-09-05T01:00:13.073Z,61.30
2017-09-05T01:02:40.606Z,60.90
2017-09-05T01:05:08.141Z,60.70
2017-09-05T01:07:35.698Z,60.10
2017-09-05T01:10:03.265Z,59.80
2017-09-05T01:12:30.798Z,59.20
2017-09-05T01:14:58.335Z,59.10
2017-09-05T01:17:25.862Z,59.60
2017-09-05T01:19:53.425Z,59.30
2017-09-05T01:22:20.957Z,58.80
2017-09-05T01:24:48.493Z,58.90
2017-09-05T01:27:16.030Z,59.20
2017-09-05T01:29:43.557Z,59.10
2017-09-05T01:32:11.118Z,59.30
2017-09-05T01:34:38.646Z,58.80
2017-09-05T01:37:06.174Z,58.30
2017-09-05T01:39:34.470Z,59.00
2017-09-05T01:42:02.002Z,58.90
2017-09-05T01:44:29.562Z,59.50
2017-09-05T01:46:57.093Z,59.60
2017-09-05T01:49:24.624Z,59.30
2017-09-05T01:51:52.153Z,58.70
2017-09-05T01:54:19.682Z,58.20
2017-09-05T01:56:47.234Z,57.70
2017-09-05T01:59:14.766Z,57.30
2017-09-05T02:01:42.293Z,57.40
2017-09-05T02:04:09.825Z,57.60
2017-09-05T02:06:37.350Z,57.80
2017-09-05T02:09:04.903Z,58.10
2017-09-05T02:11:32.434Z,57.50
2017-09-05T02:13:59.966Z,57.20
2017-09-05T02:16:28.290Z,57.50
2017-09-05T02:18:55.826Z,57.50
2017-09-05T02:21:23.382Z,57.50
2017-09-05T02:23:50.906Z,57.50
2017-09-05T02:26:18.438Z,57.40
2017-09-05T02:28:45.971Z,57.10
2017-09-05T02:31:13.507Z,57.60
2017-09-05T02:33:41.066Z,57.60
2017-09-05T02:36:08.601Z,57.80
2017-09-05T02:38:36.227Z,57.90
2017-09-05T02:41:03.758Z,58.20
2017-09-05T02:43:31.291Z,57.80
2017-09-05T02:45:58.851Z,57.60
2017-09-05T02:48:26.394Z,58.10
2017-09-05T02:50:53.917Z,58.90
2017-09-05T02:53:21.453Z,58.70
2017-09-05T02:55:49.750Z,57.70
2017-09-05T02:58:17.322Z,57.60
2017-09-05T03:00:44.852Z,58.60
2017-09-05T03:03:12.377Z,59.30
2017-09-05T03:05:39.901Z,59.60
2017-09-05T03:08:07.434Z,59.90
2017-09-05T03:10:35.199Z,59.70
2017-09-05T03:13:03.497Z,59.10
2017-09-05T03:15:31.037Z,59.10
2017-09-05T03:17:58.568Z,59.90
2017-09-05T03:20:26.094Z,59.90
2017-09-05T03:22:53.646Z,59.90
2017-09-05T03:25:21.178Z,60.10
2017-09-05T03:27:48.713Z,59.90
2017-09-05T03:30:16.246Z,59.70
2017-09-05T03:32:43.773Z,59.80
2017-09-05T03:35:11.330Z,59.30
2017-09-05T03:37:38.870Z,58.80
2017-09-05T03:40:06.394Z,58.50
2017-09-05T03:42:33.926Z,58.50
2017-09-05T03:45:01.463Z,58.80
2017-09-05T03:47:29.037Z,59.60
2017-09-05T03:49:56.580Z,59.80
2017-09-05T03:52:24.118Z,59.50
2017-09-05T03:54:51.645Z,59.60
2017-09-05T03:57:19.178Z,59.60
2017-09-05T03:59:46.737Z,59.20
2017-09-05T04:02:14.302Z,59.00
2017-09-05T04:04:41.842Z,59.00
2017-09-05T04:07:09.370Z,58.90
2017-09-05T04:09:36.898Z,58.50
2017-09-05T04:12:04.458Z,57.90
2017-09-05T04:14:31.985Z,58.20
2017-09-05T04:16:59.518Z,58.00
2017-09-05T04:19:27.042Z,58.10
2017-09-05T04:21:54.567Z,58.10
2017-09-05T04:24:22.175Z,58.80
2017-09-05T04:26:49.706Z,59.30
2017-09-05T04:29:17.265Z,59.40
2017-09-05T04:31:44.795Z,58.90
2017-09-05T04:34:12.321Z,58.60
2017-09-05T04:36:39.870Z,58.70
2017-09-05T04:39:07.394Z,58.90
2017-09-05T04:41:34.924Z,59.30
2017-09-05T04:44:02.450Z,59.40
2017-09-05T04:46:29.973Z,59.60
2017-09-05T04:48:57.527Z,59.60
2017-09-05T04:51:25.054Z,59.10
2017-09-05T04:53:52.581Z,59.00
2017-09-05T04:56:20.115Z,58.60
2017-09-05T04:58:47.680Z,58.60
2017-09-05T05:01:15.214Z,58.40
2017-09-05T05:03:42.750Z,58.70
2017-09-05T05:06:10.294Z,58.20
2017-09-05T05:08:37.821Z,58.10
2017-09-05T05:11:05.342Z,58.20
2017-09-05T05:13:32.901Z,58.10
2017-09-05T05:16:00.451Z,57.50
2017-09-05T05:18:27.989Z,57.50
2017-09-05T05:20:55.518Z,57.10
2017-09-05T05:23:23.037Z,57.00
2017-09-05T05:25:50.611Z,57.50
2017-09-05T05:28:18.177Z,57.80
2017-09-05T05:30:45.690Z,57.60
2017-09-05T05:33:13.221Z,57.40
2017-09-05T05:35:40.744Z,57.20
2017-09-05T05:38:08.303Z,57.70
2017-09-05T05:40:35.829Z,57.70
2017-09-05T05:43:03.398Z,57.60
2017-09-05T05:45:30.918Z,57.40
2017-09-05T05:47:58.446Z,57.70
2017-09-05T05:50:25.998Z,57.70
2017-09-05T05:52:53.534Z,57.70
2017-09-05T05:55:21.066Z,57.20
2017-09-05T05:57:48.596Z,57.60
2017-09-05T06:00:16.117Z,57.10
2017-09-05T06:02:43.642Z,56.70
2017-09-05T06:05:11.173Z,56.40
2017-09-05T06:07:38.714Z,57.00
2017-09-05T06:10:06.255Z,56.40
2017-09-05T06:12:33.794Z,56.40
2017-09-05T06:15:01.322Z,56.70
2017-09-05T06:17:28.862Z,56.70
2017-09-05T06:19:56.389Z,56.70
2017-09-05T06:22:23.934Z,56.90
2017-09-05T06:24:51.462Z,56.50
2017-09-05T06:27:19.081Z,55.90
2017-09-05T06:29:46.610Z,56.30
2017-09-05T06:32:14.147Z,56.30
2017-09-05T06:34:41.674Z,56.80
2017-09-05T06:37:09.202Z,56.60
2017-09-05T06:39:36.738Z,56.30
2017-09-05T06:42:04.261Z,56.20
2017-09-05T06:44:31.805Z,56.10
2017-09-05T06:46:59.323Z,55.90
2017-09-05T06:49:26.853Z,55.90
2017-09-05T06:51:54.414Z,55.90
2017-09-05T06:54:21.938Z,56.00
2017-09-05T06:56:49.463Z,55.80
2017-09-05T06:59:17.021Z,55.90
2017-09-05T07:01:44.549Z,56.20
2017-09-05T07:04:12.082Z,55.60
2017-09-05T07:06:39.650Z,56.20
2017-09-05T07:09:07.178Z,56.20
2017-09-05T07:11:35.005Z,56.10
2017-09-05T07:14:02.882Z,55.40
2017-09-05T07:16:30.762Z,55.20
2017-09-05T07:18:58.402Z,55.20
2017-09-05T07:21:26.072Z,55.00
2017-09-05T07:23:53.603Z,54.60
2017-09-05T07:26:21.125Z,55.20
2017-09-05T07:28:48.683Z,55.40
2017-09-05T07:31:16.506Z,55.90
2017-09-05T07:33:44.265Z,55.00
2017-09-05T07:36:11.945Z,55.40
2017-09-05T07:38:39.793Z,55.90
2017-09-05T07:41:07.331Z,56.40
2017-09-05T07:43:34.883Z,56.20
2017-09-05T07:46:02.409Z,55.90
2017-09-05T07:48:29.933Z,55.90
2017-09-05T07:50:57.513Z,56.70
2017-09-05T07:53:29.940Z,57.00
2017-09-05T07:55:58.015Z,56.70
2017-09-05T07:58:25.538Z,56.90
2017-09-05T08:00:53.062Z,57.00
2017-09-05T08:03:20.806Z,56.80
2017-09-05T08:05:48.698Z,56.20
2017-09-05T08:08:16.641Z,56.20
2017-09-05T08:10:44.188Z,56.40
2017-09-05T08:13:11.966Z,56.40
2017-09-05T08:15:39.550Z,56.30
2017-09-05T08:18:07.082Z,56.30
2017-09-05T08:20:34.810Z,55.90
2017-09-05T08:23:02.357Z,56.30
2017-09-05T08:25:30.088Z,56.30
2017-09-05T08:27:58.059Z,56.30
2017-09-05T08:30:26.005Z,55.90
2017-09-05T08:32:53.537Z,56.00
2017-09-05T08:35:21.062Z,56.10
2017-09-05T08:37:48.586Z,56.60
2017-09-05T08:40:17.061Z,56.40
2017-09-05T08:42:44.613Z,55.80
2017-09-05T08:45:12.150Z,56.00
2017-09-05T08:47:39.680Z,56.30
2017-09-05T08:50:07.208Z,55.90
2017-09-05T08:52:34.743Z,56.20
2017-09-05T08:55:02.271Z,55.60
2017-09-05T08:57:29.801Z,55.20
2017-09-05T08:59:57.334Z,54.50
2017-09-05T09:02:24.861Z,54.20
2017-09-05T09:04:52.394Z,54.90
2017-09-05T09:07:19.928Z,55.40
2017-09-05T09:09:47.482Z,55.60
2017-09-05T09:12:15.018Z,55.50
2017-09-05T09:14:42.554Z,56.30
2017-09-05T09:17:10.105Z,56.10
2017-09-05T09:19:37.630Z,55.50
2017-09-05T09:22:05.191Z,56.20
2017-09-05T09:24:32.740Z,55.90
2017-09-05T09:27:00.295Z,55.60
2017-09-05T09:29:27.830Z,56.20
2017-09-05T09:31:55.385Z,55.80
2017-09-05T09:34:22.916Z,55.60
2017-09-05T09:36:50.462Z,55.80
2017-09-05T09:39:18.289Z,56.40
2017-09-05T09:41:45.999Z,56.30
2017-09-05T09:44:13.522Z,55.70
2017-09-05T09:46:41.082Z,55.70
2017-09-05T09:49:08.615Z,56.40
2017-09-05T09:51:36.142Z,57.00
2017-09-05T09:54:03.697Z,57.10
2017-09-05T09:56:31.230Z,56.30
2017-09-05T09:58:58.771Z,56.60
2017-09-05T10:01:26.335Z,55.90
2017-09-05T10:03:54.442Z,56.10
2017-09-05T10:06:21.974Z,55.60
2017-09-05T10:08:49.525Z,55.20
2017-09-05T10:11:17.053Z,55.50
2017-09-05T10:13:44.577Z,55.00
2017-09-05T10:16:12.123Z,55.00
2017-09-05T10:18:39.653Z,54.90
2017-09-05T10:21:07.206Z,54.40
2017-09-05T10:23:34.737Z,53.80
2017-09-05T10:26:02.266Z,52.80
2017-09-05T10:28:29.798Z,52.50
2017-09-05T10:30:57.335Z,52.40
2017-09-05T10:33:24.891Z,51.70
2017-09-05T10:35:52.413Z,51.50
2017-09-05T10:38:19.942Z,51.20
2017-09-05T10:40:47.476Z,51.10
2017-09-05T10:43:15.009Z,51.50
2017-09-05T10:45:42.558Z,50.40
2017-09-05T10:48:10.101Z,49.90
2017-09-05T10:50:37.626Z,49.70
2017-09-05T10:53:05.157Z,49.20
2017-09-05T10:55:32.701Z,48.70
2017-09-05T10:58:00.258Z,47.70
2017-09-05T11:00:27.833Z,47.30
2017-09-05T11:02:55.359Z,46.80
2017-09-05T11:05:22.893Z,47.10
2017-09-05T11:07:50.426Z,46.20
2017-09-05T11:10:18.189Z,46.70
2017-09-05T11:12:45.717Z,46.90
2017-09-05T11:15:13.246Z,46.80
2017-09-05T11:17:40.778Z,46.10
2017-09-05T11:20:08.310Z,46.10
2017-09-05T11:22:35.873Z,45.60
2017-09-05T11:25:03.402Z,46.40
2017-09-05T11:27:31.002Z,46.70
2017-09-05T11:29:58.537Z,46.20
2017-09-05T11:32:26.073Z,45.90
2017-09-05T11:34:53.621Z,45.50
2017-09-05T11:37:21.148Z,45.40
2017-09-05T11:39:48.682Z,45.40
2017-09-05T11:42:16.213Z,44.70
2017-09-05T11:44:43.754Z,44.50
2017-09-05T11:47:11.336Z,44.40
2017-09-05T11:49:38.875Z,44.60
2017-09-05T11:52:06.418Z,45.50
2017-09-05T11:54:33.954Z,44.70
2017-09-05T11:57:01.486Z,44.00
2017-09-05T11:59:29.054Z,44.60
2017-09-05T12:01:56.574Z,44.90
2017-09-05T12:04:24.102Z,45.10
2017-09-05T12:06:51.634Z,44.90
2017-09-05T12:09:19.169Z,45.10
2017-09-05T12:11:46.717Z,45.40
2017-09-05T12:14:14.250Z,45.30
2017-09-05T12:16:41.782Z,45.50
2017-09-05T12:19:09.359Z,45.30
2017-09-05T12:21:36.889Z,44.60
2017-09-05T12:24:04.444Z,45.20
2017-09-05T12:26:37.114Z,43.10
2017-09-05T12:29:04.993Z,42.70
2017-09-05T12:31:32.527Z,42.70
2017-09-05T12:34:00.051Z,42.40
2017-09-05T12:36:27.830Z,42.20
2017-09-05T12:38:55.461Z,41.10
2017-09-05T12:41:23.018Z,40.70
2017-09-05T12:43:50.587Z,41.20
2017-09-05T12:46:18.237Z,41.20
2017-09-05T12:48:45.767Z,41.60
2017-09-05T12:51:13.319Z,41.20
2017-09-05T12:53:40.942Z,41.60
2017-09-05T12:56:08.627Z,42.50
2017-09-05T12:58:36.153Z,42.00
2017-09-05T13:01:03.830Z,41.80
2017-09-05T13:03:31.354Z,41.90
2017-09-05T13:05:58.909Z,41.90
2017-09-05T13:08:26.436Z,43.20
2017-09-05T13:10:53.962Z,42.60
2017-09-05T13:13:21.497Z,42.50
2017-09-05T13:15:49.017Z,42.60
2017-09-05T13:18:16.574Z,42.20
2017-09-05T13:20:44.146Z,42.40
2017-09-05T13:23:11.786Z,42.40
2017-09-05T13:25:39.320Z,43.10
2017-09-05T13:28:06.992Z,42.90
2017-09-05T13:30:34.696Z,42.80
2017-09-05T13:33:02.270Z,42.50
2017-09-05T13:35:29.798Z,42.80
2017-09-05T13:37:57.618Z,43.30
2017-09-05T13:40:25.200Z,43.00
2017-09-05T13:42:52.760Z,43.10
2017-09-05T13:45:20.289Z,43.00
2017-09-05T13:47:47.822Z,43.60
2017-09-05T13:50:15.345Z,44.10
2017-09-05T13:52:42.874Z,44.40
2017-09-05T13:55:10.731Z,44.70
2017-09-05T13:57:38.266Z,44.80
2017-09-05T14:00:05.914Z,45.20
2017-09-05T14:02:33.448Z,45.10
2017-09-05T14:05:01.333Z,45.60
2017-09-05T14:07:29.038Z,46.00
2017-09-05T14:09:56.570Z,45.70
2017-09-05T14:12:24.390Z,45.90
2017-09-05T14:14:51.921Z,46.10
2017-09-05T14:17:19.446Z,45.60
2017-09-05T14:19:46.997Z,46.00
2017-09-05T14:22:14.528Z,45.80
2017-09-05T14:24:42.073Z,45.80
2017-09-05T14:27:09.609Z,45.60
2017-09-05T14:29:37.191Z,45.70
2017-09-05T14:32:04.762Z,45.60
2017-09-05T14:34:32.314Z,46.10
2017-09-05T14:37:00.085Z,45.80
2017-09-05T14:39:27.684Z,45.70
2017-09-05T14:41:55.384Z,46.40
2017-09-05T14:44:23.382Z,46.00
2017-09-05T14:46:50.948Z,46.20
2017-09-05T14:49:18.466Z,46.10
2017-09-05T14:51:45.990Z,45.90
2017-09-05T14:54:13.726Z,46.10
2017-09-05T14:56:41.295Z,46.10
2017-09-05T14:59:08.891Z,45.90
2017-09-05T15:01:37.018Z,46.20
2017-09-05T15:04:04.834Z,46.00
2017-09-05T15:06:32.358Z,46.50
2017-09-05T15:08:59.917Z,46.20
2017-09-05T15:11:27.565Z,46.10
2017-09-05T15:13:55.093Z,46.70
2017-09-05T15:16:22.630Z,46.80
2017-09-05T15:18:50.166Z,46.90
2017-09-05T15:21:17.726Z,47.20
2017-09-05T15:23:45.256Z,46.80
2017-09-05T15:26:12.970Z,47.30
2017-09-05T15:28:40.857Z,47.00
2017-09-05T15:31:08.900Z,47.60
2017-09-05T15:33:36.464Z,47.60
2017-09-05T15:36:03.993Z,47.40
2017-09-05T15:38:31.534Z,47.70
2017-09-05T15:40:59.153Z,47.30
2017-09-05T15:43:26.705Z,47.30
2017-09-05T15:45:54.702Z,46.90
2017-09-05T15:48:22.335Z,46.80
2017-09-05T15:50:50.115Z,46.80
2017-09-05T15:53:17.655Z,46.70
2017-09-05T15:55:45.192Z,47.40
2017-09-05T15:58:12.746Z,47.70
2017-09-05T16:00:40.278Z,47.90
2017-09-05T16:03:07.849Z,48.10
2017-09-05T16:05:35.458Z,47.70
2017-09-05T16:08:03.030Z,47.80
2017-09-05T16:10:30.837Z,47.60
2017-09-05T16:12:58.422Z,48.30
2017-09-05T16:15:25.955Z,48.40
2017-09-05T16:17:53.489Z,48.20
2017-09-05T16:20:21.017Z,47.90
2017-09-05T16:22:48.779Z,48.20
2017-09-05T16:25:16.582Z,48.30
2017-09-05T16:27:44.421Z,48.50
2017-09-05T16:30:12.380Z,48.40
2017-09-05T16:32:41.482Z,48.20
2017-09-05T16:35:09.462Z,47.90
2017-09-05T16:37:37.098Z,48.40
2017-09-05T16:40:05.492Z,48.40
2017-09-05T16:42:33.870Z,48.70
2017-09-05T16:45:01.733Z,48.70
2017-09-05T16:47:29.756Z,48.70
2017-09-05T16:49:58.091Z,48.90
2017-09-05T16:52:25.902Z,49.20
2017-09-05T16:54:53.450Z,49.70
2017-09-05T16:57:21.275Z,49.10
2017-09-05T16:59:49.138Z,49.30
2017-09-05T17:02:17.768Z,49.60
2017-09-05T17:04:45.387Z,49.70
2017-09-05T17:07:12.930Z,49.70
2017-09-05T17:09:40.462Z,49.70
2017-09-05T17:12:08.266Z,50.10
2017-09-05T17:14:35.826Z,50.20
2017-09-05T17:17:03.373Z,50.60
2017-09-05T17:19:31.143Z,51.00
2017-09-05T17:21:58.698Z,51.00
2017-09-05T17:24:26.225Z,51.10
2017-09-05T17:26:53.765Z,51.10
2017-09-05T17:29:21.335Z,51.20
2017-09-05T17:31:48.870Z,51.20
2017-09-05T17:34:16.405Z,51.30
2017-09-05T17:36:43.930Z,51.30
2017-09-05T17:39:11.462Z,51.40
2017-09-05T17:41:39.021Z,51.90
2017-09-05T17:44:06.550Z,51.70
2017-09-05T17:46:34.073Z,51.80
2017-09-05T17:49:01.614Z,52.10
2017-09-05T17:51:29.210Z,52.20
2017-09-05T17:53:56.761Z,52.30
2017-09-05T17:56:24.358Z,52.30
2017-09-05T17:58:51.881Z,52.50
2017-09-05T18:01:19.418Z,52.80
2017-09-05T18:03:46.947Z,53.00
2017-09-05T18:06:14.521Z,53.20
2017-09-05T18:08:42.066Z,54.00
2017-09-05T18:11:09.585Z,53.60
2017-09-05T18:13:37.123Z,53.70
2017-09-05T18:16:04.655Z,53.70
2017-09-05T18:18:32.207Z,54.00
2017-09-05T18:20:59.732Z,54.90
2017-09-05T18:23:27.259Z,54.20
2017-09-05T18:25:54.785Z,53.90
2017-09-05T18:28:22.315Z,54.30
2017-09-05T18:30:49.879Z,54.60
2017-09-05T18:33:17.406Z,54.50
2017-09-05T18:35:44.938Z,54.50
2017-09-05T18:38:12.472Z,54.40
2017-09-05T18:40:40.059Z,54.30
2017-09-05T18:43:07.598Z,54.40
2017-09-05T18:45:35.901Z,54.30
2017-09-05T18:48:03.445Z,54.20
2017-09-05T18:50:30.982Z,54.20
2017-09-05T18:52:59.440Z,54.40
2017-09-05T18:55:26.994Z,54.80
2017-09-05T18:57:54.529Z,54.80
2017-09-05T19:00:22.066Z,55.20
2017-09-05T19:02:49.601Z,55.00
2017-09-05T19:05:17.143Z,55.00
2017-09-05T19:07:44.706Z,55.10
2017-09-05T19:10:12.237Z,55.40
2017-09-05T19:12:39.767Z,55.90
2017-09-05T19:15:07.303Z,55.40
2017-09-05T19:17:34.842Z,55.70
2017-09-05T19:20:02.406Z,56.10
2017-09-05T19:22:29.935Z,56.20
2017-09-05T19:24:57.462Z,56.40
2017-09-05T19:27:25.005Z,56.40
2017-09-05T19:29:52.530Z,56.50
2017-09-05T19:32:20.098Z,56.20
2017-09-05T19:34:47.639Z,56.30
2017-09-05T19:37:15.161Z,56.60
2017-09-05T19:39:42.717Z,56.80
2017-09-05T19:42:10.254Z,57.00
2017-09-05T19:44:37.817Z,56.60
2017-09-05T19:47:05.346Z,56.40
2017-09-05T19:49:33.067Z,56.40
2017-09-05T19:52:00.603Z,56.10
2017-09-05T19:54:28.181Z,56.00
2017-09-05T19:56:55.740Z,56.20
2017-09-05T19:59:23.262Z,55.80
2017-09-05T20:01:50.925Z,55.80
2017-09-05T20:04:18.918Z,56.10
2017-09-05T20:06:46.839Z,56.40
2017-09-05T20:09:14.544Z,56.30
2017-09-05T20:11:42.096Z,56.30
2017-09-05T20:14:09.745Z,56.20
2017-09-05T20:16:37.270Z,56.40
2017-09-05T20:19:05.337Z,56.40
2017-09-05T20:21:33.030Z,56.70
2017-09-05T20:24:00.563Z,56.10
2017-09-05T20:26:29.094Z,55.90
2017-09-05T20:28:56.967Z,56.00
2017-09-05T20:31:24.713Z,56.00
2017-09-05T20:33:52.691Z,56.80
2017-09-05T20:36:20.213Z,57.00
2017-09-05T20:38:47.753Z,57.20
2017-09-05T20:41:15.511Z,57.30
2017-09-05T20:43:43.032Z,57.30
2017-09-05T20:46:10.872Z,57.30
2017-09-05T20:48:38.401Z,57.00
2017-09-05T20:51:06.299Z,56.70
2017-09-05T20:53:33.830Z,56.50
2017-09-05T20:56:01.649Z,56.30
2017-09-05T20:58:29.220Z,55.90
2017-09-05T21:00:56.746Z,55.80
2017-09-05T21:03:24.279Z,55.90
2017-09-05T21:05:51.811Z,55.70
2017-09-05T21:08:19.354Z,55.70
2017-09-05T21:10:46.906Z,56.20
2017-09-05T21:13:14.530Z,56.50
2017-09-05T21:15:42.063Z,56.80
2017-09-05T21:18:09.601Z,56.90
2017-09-05T21:20:37.130Z,56.80
2017-09-05T21:23:04.692Z,56.70
2017-09-05T21:25:32.228Z,56.70
2017-09-05T21:27:59.911Z,56.90
2017-09-05T21:30:27.441Z,57.50
2017-09-05T21:32:55.025Z,57.30
2017-09-05T21:35:22.597Z,57.30
2017-09-05T21:37:50.126Z,57.00
2017-09-05T21:40:17.647Z,57.20
2017-09-05T21:42:45.205Z,57.90
2017-09-05T21:45:12.786Z,58.50
2017-09-05T21:47:40.818Z,58.30
2017-09-05T21:50:08.348Z,57.90
2017-09-05T21:52:35.882Z,58.80
2017-09-05T21:55:03.431Z,57.80
2017-09-05T21:57:30.998Z,58.20
2017-09-05T21:59:58.576Z,58.30
2017-09-05T22:02:26.190Z,58.60
2017-09-05T22:04:53.718Z,59.40
2017-09-05T22:07:21.241Z,59.20
2017-09-05T22:09:48.766Z,59.10
2017-09-05T22:12:16.319Z,58.90
2017-09-05T22:14:49.531Z,58.80
2017-09-05T22:17:19.022Z,58.90
2017-09-05T22:19:52.330Z,58.80
2017-09-05T22:22:19.892Z,59.30
2017-09-05T22:24:53.212Z,59.50
2017-09-05T22:27:35.657Z,59.50
2017-09-05T22:30:03.188Z,59.60
2017-09-05T22:32:30.725Z,59.80
2017-09-05T22:34:58.262Z,59.60
2017-09-05T22:37:25.810Z,59.40
2017-09-05T22:39:53.377Z,59.70
2017-09-05T22:42:20.917Z,60.00
2017-09-05T22:44:48.447Z,60.40
2017-09-05T22:47:15.978Z,60.20
2017-09-05T22:49:43.501Z,60.10
2017-09-05T22:52:11.059Z,60.00
2017-09-05T22:54:38.585Z,60.00
2017-09-05T22:57:06.109Z,59.70
2017-09-05T22:59:33.642Z,59.40
2017-09-05T23:02:01.194Z,59.30
2017-09-05T23:04:28.746Z,59.70
2017-09-05T23:06:56.278Z,60.50
2017-09-05T23:09:23.814Z,59.90
2017-09-05T23:11:51.345Z,60.10
2017-09-05T23:14:19.643Z,59.70
2017-09-05T23:16:47.226Z,59.60
2017-09-05T23:19:14.750Z,59.60
2017-09-05T23:21:42.274Z,60.00
2017-09-05T23:24:09.794Z,59.90
2017-09-05T23:26:37.319Z,60.30
2017-09-05T23:29:04.875Z,59.80
2017-09-05T23:31:33.167Z,59.40
2017-09-05T23:34:00.701Z,59.40
2017-09-05T23:36:28.237Z,59.60
2017-09-05T23:38:55.766Z,60.00
2017-09-05T23:41:23.321Z,59.70
2017-09-05T23:43:50.845Z,59.10
2017-09-05T23:46:18.380Z,58.90
2017-09-05T23:48:45.915Z,59.50
2017-09-05T23:51:13.457Z,59.90
2017-09-05T23:53:41.010Z,59.50
2017-09-05T23:56:08.550Z,59.60
2017-09-05T23:58:36.078Z,59.20
